Wetterdaten: Juni 2007
Datum Temp. A. Feuchte A. Luftdruck Regen Wind Richtung Taupunkt Windchill Windben
01.06.2007 16,4 C 74 % 1012 hPa 3,6 l/m 0,6 km/h O-NO 11,2 C 16,4 C 0,4 km/h
02.06.2007 15,5 C 88 % 1018 hPa 2,6 l/m 0,6 km/h W-NW 13,5 C 15,5 C 0,4 km/h
03.06.2007 18,6 C 73 % 1018 hPa 0,0 l/m 3,1 km/h N-NO 13,5 C 18,6 C 2,3 km/h
04.06.2007 19,5 C 71 % 1017 hPa 0,0 l/m 3,4 km/h N-NO 14,0 C 19,5 C 2,4 km/h
05.06.2007 20,1 C 68 % 1015 hPa 0,0 l/m 5,2 km/h N-NO 13,8 C 19,7 C 3,7 km/h
06.06.2007 21,4 C 68 % 1012 hPa 0,0 l/m 4,2 km/h O 15,1 C 21,3 C 3,0 km/h
07.06.2007 24,0 C 55 % 1012 hPa 0,0 l/m 9,3 km/h O 13,9 C 23,7 C 7,8 km/h
08.06.2007 23,0 C 60 % 1014 hPa 0,0 l/m 1,9 km/h O 14,1 C 23,0 C 1,4 km/h
09.06.2007 22,5 C 60 % 1014 hPa 0,0 l/m 0,8 km/h NO 13,9 C 22,5 C 0,6 km/h
10.06.2007 22,9 C 59 % 1013 hPa 1,0 l/m 3,8 km/h N-NO 14,1 C 22,9 C 2,7 km/h
11.06.2007 20,5 C 72 % 1012 hPa 2,6 l/m 0,5 km/h W-NW 15,1 C 20,5 C 0,3 km/h
12.06.2007 18,7 C 82 % 1009 hPa 5,2 l/m 1,9 km/h W-NW 15,4 C 18,7 C 1,4 km/h
13.06.2007 21,1 C 67 % 1008 hPa 0,0 l/m 1,0 km/h W-NW 14,2 C 21,1 C 0,7 km/h
14.06.2007 23,8 C 61 % 1005 hPa 0,0 l/m 2,5 km/h N-NO 15,1 C 23,5 C 1,8 km/h
15.06.2007 18,3 C 81 % 1005 hPa 27,5 l/m 4,1 km/h W-NW 14,7 C 18,2 C 2,8 km/h
16.06.2007 16,3 C 78 % 1009 hPa 5,7 l/m 0,0 km/h W-NW 12,3 C 16,3 C 0,0 km/h
17.06.2007 20,3 C 65 % 1008 hPa 0,5 l/m 2,6 km/h W-NW 12,7 C 20,2 C 1,7 km/h
18.06.2007 21,6 C 65 % 1011 hPa 4,7 l/m 5,4 km/h W-NW 14,3 C 21,1 C 5,2 km/h
19.06.2007 23,0 C 64 % 1013 hPa 0,5 l/m 3,1 km/h NO 15,2 C 23,0 C 2,1 km/h
20.06.2007 24,5 C 67 % 1011 hPa 0,0 l/m 0,7 km/h NO 17,6 C 24,5 C 0,4 km/h
21.06.2007 18,4 C 82 % 1010 hPa 19,2 l/m 3,4 km/h W-NW 15,2 C 18,4 C 2,2 km/h
22.06.2007 18,2 C 76 % 1011 hPa 5,2 l/m 3,4 km/h W-NW 13,7 C 17,9 C 2,2 km/h
23.06.2007 15,8 C 79 % 1012 hPa 4,7 l/m 5,7 km/h W-NW 12,0 C 14,9 C 4,9 km/h
24.06.2007 20,0 C 65 % 1013 hPa 0,0 l/m 1,9 km/h W-NW 12,6 C 19,9 C 1,3 km/h
25.06.2007 18,8 C 73 % 1006 hPa 6,2 l/m 2,6 km/h W-NW 13,1 C 18,8 C 1,7 km/h
26.06.2007 13,6 C 81 % 1003 hPa 4,1 l/m 9,3 km/h W-NW 10,4 C 12,3 C 7,8 km/h
27.06.2007 13,1 C 71 % 1008 hPa 0,5 l/m 4,3 km/h W-NW 7,9 C 12,8 C 2,9 km/h
28.06.2007 13,7 C 76 % 1013 hPa 1,6 l/m 3,3 km/h W-NW 9,5 C 13,7 C 2,2 km/h
29.06.2007 16,9 C 65 % 1015 hPa 0,0 l/m 1,6 km/h W-NW 10,0 C 16,9 C 1,1 km/h
30.06.2007 16,6 C 78 % 1016 hPa 0,5 l/m 0,8 km/h W-NW 12,7 C 16,6 C 0,6 km/h
Min-Datum 01.06.07 20.06.07 26.06.07 18 Tage 01.06.07 - 08.06.07 27.06.07 01.06.07
Min-Zeit 04:30 14:25 10:20 - 00:00 - 21:45 12:20 00:00
Minimum 9,3 C 29 % 1001 hPa - 0,0 km/h - 4,5 C 6,6 C 0,0 km/h
Max-Datum 09.06.07 02.06.07 02.06.07 15.06.07 25.06.07 - 20.06.07 09.06.07 26.06.07
Max-Zeit 15:15 04:15 22:20 01:10 14:25 - 15:35 15:15 11:45
Maximum 31,7 C 91 % 1020 hPa 27,5 l/m 30,2 km/h
W-NW
- 19,3 C 31,7 C 41,0 km/h
W-NW
Durchschnitt 19,2 C 71 % 1012 hPa #95,8 l/m 3,0 km/h W-NW 13,4 C 19,1 C 2,3 km/h

Durchschnitt Minimum Temp.13,9 C
Durchschnitt Maximum Temp.25,2 C